sensor_id;sensor_type;location;lat;lon;timestamp;P1;durP1;ratioP1;P2;durP2;ratioP2
52918;SDS011;38793;52.690;6.812;2022-12-18T00:02:16;130.50;;;52.37;;
52918;SDS011;38793;52.690;6.812;2022-12-18T00:04:41;129.17;;;48.97;;
52918;SDS011;38793;52.690;6.812;2022-12-18T00:07:07;137.87;;;50.67;;
52918;SDS011;38793;52.690;6.812;2022-12-18T00:09:33;137.60;;;55.90;;
52918;SDS011;38793;52.690;6.812;2022-12-18T00:11:58;138.17;;;53.97;;
52918;SDS011;38793;52.690;6.812;2022-12-18T00:14:24;143.53;;;50.80;;
52918;SDS011;38793;52.690;6.812;2022-12-18T00:16:49;138.97;;;53.10;;
52918;SDS011;38793;52.690;6.812;2022-12-18T00:19:15;142.77;;;53.87;;
52918;SDS011;38793;52.690;6.812;2022-12-18T00:21:41;124.95;;;51.88;;
52918;SDS011;38793;52.690;6.812;2022-12-18T00:24:08;135.55;;;50.85;;
52918;SDS011;38793;52.690;6.812;2022-12-18T00:26:35;132.00;;;51.08;;
52918;SDS011;38793;52.690;6.812;2022-12-18T00:29:03;126.70;;;51.63;;
52918;SDS011;38793;52.690;6.812;2022-12-18T00:31:31;126.30;;;49.22;;
52918;SDS011;38793;52.690;6.812;2022-12-18T00:33:57;123.63;;;48.67;;
52918;SDS011;38793;52.690;6.812;2022-12-18T00:36:24;132.23;;;48.08;;
52918;SDS011;38793;52.690;6.812;2022-12-18T00:38:52;123.00;;;47.47;;
52918;SDS011;38793;52.690;6.812;2022-12-18T00:41:19;133.35;;;52.10;;
52918;SDS011;38793;52.690;6.812;2022-12-18T00:44:04;116.13;;;47.70;;
52918;SDS011;38793;52.690;6.812;2022-12-18T00:46:32;126.95;;;48.42;;
52918;SDS011;38793;52.690;6.812;2022-12-18T00:48:58;125.07;;;49.58;;
52918;SDS011;38793;52.690;6.812;2022-12-18T00:51:24;137.25;;;54.70;;
52918;SDS011;38793;52.690;6.812;2022-12-18T00:53:50;134.30;;;50.45;;
52918;SDS011;38793;52.690;6.812;2022-12-18T00:56:16;117.13;;;49.50;;
52918;SDS011;38793;52.690;6.812;2022-12-18T00:58:41;116.33;;;48.17;;
52918;SDS011;38793;52.690;6.812;2022-12-18T01:01:07;126.50;;;51.47;;
52918;SDS011;38793;52.690;6.812;2022-12-18T01:03:33;124.95;;;49.83;;
52918;SDS011;38793;52.690;6.812;2022-12-18T01:05:59;135.60;;;54.33;;
52918;SDS011;38793;52.690;6.812;2022-12-18T01:08:29;135.65;;;53.35;;
52918;SDS011;38793;52.690;6.812;2022-12-18T01:10:55;150.03;;;55.20;;
52918;SDS011;38793;52.690;6.812;2022-12-18T01:13:21;131.73;;;51.97;;
52918;SDS011;38793;52.690;6.812;2022-12-18T01:15:49;137.07;;;50.87;;
52918;SDS011;38793;52.690;6.812;2022-12-18T01:18:16;141.00;;;57.35;;
52918;SDS011;38793;52.690;6.812;2022-12-18T01:20:41;138.98;;;55.70;;
52918;SDS011;38793;52.690;6.812;2022-12-18T01:23:07;149.98;;;56.15;;
52918;SDS011;38793;52.690;6.812;2022-12-18T01:25:35;155.33;;;56.07;;
52918;SDS011;38793;52.690;6.812;2022-12-18T01:28:01;153.13;;;57.13;;
52918;SDS011;38793;52.690;6.812;2022-12-18T01:30:27;163.00;;;57.95;;
52918;SDS011;38793;52.690;6.812;2022-12-18T01:32:52;149.27;;;54.03;;
52918;SDS011;38793;52.690;6.812;2022-12-18T01:35:18;143.13;;;58.07;;
52918;SDS011;38793;52.690;6.812;2022-12-18T01:37:44;145.33;;;52.73;;
52918;SDS011;38793;52.690;6.812;2022-12-18T01:40:09;141.57;;;53.27;;
52918;SDS011;38793;52.690;6.812;2022-12-18T01:42:35;136.05;;;49.30;;
52918;SDS011;38793;52.690;6.812;2022-12-18T01:47:47;137.52;;;52.35;;
52918;SDS011;38793;52.690;6.812;2022-12-18T01:50:16;126.82;;;51.15;;
52918;SDS011;38793;52.690;6.812;2022-12-18T01:52:54;126.18;;;54.17;;
52918;SDS011;38793;52.690;6.812;2022-12-18T01:55:24;130.07;;;50.08;;
52918;SDS011;38793;52.690;6.812;2022-12-18T01:57:53;133.05;;;49.85;;
52918;SDS011;38793;52.690;6.812;2022-12-18T02:00:21;115.03;;;48.40;;
52918;SDS011;38793;52.690;6.812;2022-12-18T02:02:48;118.40;;;47.80;;
52918;SDS011;38793;52.690;6.812;2022-12-18T02:05:16;115.43;;;47.33;;
52918;SDS011;38793;52.690;6.812;2022-12-18T02:07:47;109.20;;;42.88;;
52918;SDS011;38793;52.690;6.812;2022-12-18T02:10:17;104.07;;;45.15;;
52918;SDS011;38793;52.690;6.812;2022-12-18T02:13:09;106.57;;;48.88;;
52918;SDS011;38793;52.690;6.812;2022-12-18T02:15:40;106.50;;;44.15;;
52918;SDS011;38793;52.690;6.812;2022-12-18T02:20:38;98.63;;;42.75;;
52918;SDS011;38793;52.690;6.812;2022-12-18T02:26:08;96.93;;;39.55;;
52918;SDS011;38793;52.690;6.812;2022-12-18T02:28:48;97.38;;;39.60;;
52918;SDS011;38793;52.690;6.812;2022-12-18T02:31:21;102.38;;;41.22;;
52918;SDS011;38793;52.690;6.812;2022-12-18T02:33:56;94.97;;;36.13;;
52918;SDS011;38793;52.690;6.812;2022-12-18T02:36:25;90.22;;;36.65;;
52918;SDS011;38793;52.690;6.812;2022-12-18T02:38:53;81.88;;;34.70;;
52918;SDS011;38793;52.690;6.812;2022-12-18T02:41:20;84.00;;;35.90;;
52918;SDS011;38793;52.690;6.812;2022-12-18T02:43:48;89.75;;;33.65;;
52918;SDS011;38793;52.690;6.812;2022-12-18T02:46:28;77.47;;;33.53;;
52918;SDS011;38793;52.690;6.812;2022-12-18T02:49:02;82.18;;;34.30;;
52918;SDS011;38793;52.690;6.812;2022-12-18T02:57:24;87.13;;;36.03;;
52918;SDS011;38793;52.690;6.812;2022-12-18T03:00:08;80.32;;;34.97;;
52918;SDS011;38793;52.690;6.812;2022-12-18T03:02:41;80.18;;;35.90;;
52918;SDS011;38793;52.690;6.812;2022-12-18T03:05:13;78.57;;;34.90;;
52918;SDS011;38793;52.690;6.812;2022-12-18T03:07:47;76.10;;;34.95;;
52918;SDS011;38793;52.690;6.812;2022-12-18T03:10:19;81.95;;;33.22;;
52918;SDS011;38793;52.690;6.812;2022-12-18T03:13:12;69.97;;;32.10;;
52918;SDS011;38793;52.690;6.812;2022-12-18T03:15:43;70.32;;;31.13;;
52918;SDS011;38793;52.690;6.812;2022-12-18T03:18:14;77.00;;;31.50;;
52918;SDS011;38793;52.690;6.812;2022-12-18T03:20:43;73.80;;;32.17;;
52918;SDS011;38793;52.690;6.812;2022-12-18T03:23:11;70.18;;;32.47;;
52918;SDS011;38793;52.690;6.812;2022-12-18T03:25:42;75.50;;;33.45;;
52918;SDS011;38793;52.690;6.812;2022-12-18T03:28:12;76.22;;;32.60;;
52918;SDS011;38793;52.690;6.812;2022-12-18T03:30:41;69.93;;;30.08;;
52918;SDS011;38793;52.690;6.812;2022-12-18T03:33:12;67.00;;;29.48;;
52918;SDS011;38793;52.690;6.812;2022-12-18T03:35:44;70.88;;;29.02;;
52918;SDS011;38793;52.690;6.812;2022-12-18T03:38:11;66.88;;;31.42;;
52918;SDS011;38793;52.690;6.812;2022-12-18T03:40:43;70.75;;;30.65;;
52918;SDS011;38793;52.690;6.812;2022-12-18T03:46:21;68.82;;;30.95;;
52918;SDS011;38793;52.690;6.812;2022-12-18T03:49:23;67.35;;;30.23;;
52918;SDS011;38793;52.690;6.812;2022-12-18T03:52:03;66.35;;;30.20;;
52918;SDS011;38793;52.690;6.812;2022-12-18T03:54:34;62.63;;;29.23;;
52918;SDS011;38793;52.690;6.812;2022-12-18T03:57:03;63.58;;;28.27;;
52918;SDS011;38793;52.690;6.812;2022-12-18T03:59:32;62.03;;;27.40;;
52918;SDS011;38793;52.690;6.812;2022-12-18T04:01:59;65.03;;;28.48;;
52918;SDS011;38793;52.690;6.812;2022-12-18T04:04:26;61.70;;;28.67;;
52918;SDS011;38793;52.690;6.812;2022-12-18T04:06:53;61.63;;;26.52;;
52918;SDS011;38793;52.690;6.812;2022-12-18T04:09:21;69.68;;;31.65;;
52918;SDS011;38793;52.690;6.812;2022-12-18T04:11:46;56.70;;;27.80;;
52918;SDS011;38793;52.690;6.812;2022-12-18T04:14:12;62.45;;;27.15;;
52918;SDS011;38793;52.690;6.812;2022-12-18T04:16:38;58.88;;;28.52;;
52918;SDS011;38793;52.690;6.812;2022-12-18T04:19:04;57.85;;;26.95;;
52918;SDS011;38793;52.690;6.812;2022-12-18T04:21:30;56.03;;;25.95;;
52918;SDS011;38793;52.690;6.812;2022-12-18T04:23:55;61.20;;;28.73;;
52918;SDS011;38793;52.690;6.812;2022-12-18T04:26:21;56.63;;;27.37;;
52918;SDS011;38793;52.690;6.812;2022-12-18T04:28:47;59.15;;;28.38;;
52918;SDS011;38793;52.690;6.812;2022-12-18T04:31:12;59.70;;;28.63;;
52918;SDS011;38793;52.690;6.812;2022-12-18T04:33:38;59.10;;;26.43;;
52918;SDS011;38793;52.690;6.812;2022-12-18T04:36:04;56.37;;;27.63;;
52918;SDS011;38793;52.690;6.812;2022-12-18T04:38:29;56.97;;;28.25;;
52918;SDS011;38793;52.690;6.812;2022-12-18T04:40:55;63.50;;;29.00;;
52918;SDS011;38793;52.690;6.812;2022-12-18T04:43:20;59.33;;;28.93;;
52918;SDS011;38793;52.690;6.812;2022-12-18T04:45:46;57.70;;;27.43;;
52918;SDS011;38793;52.690;6.812;2022-12-18T04:48:12;57.67;;;26.67;;
52918;SDS011;38793;52.690;6.812;2022-12-18T04:50:37;53.00;;;25.30;;
52918;SDS011;38793;52.690;6.812;2022-12-18T04:53:03;56.38;;;26.13;;
52918;SDS011;38793;52.690;6.812;2022-12-18T04:55:29;58.53;;;25.40;;
52918;SDS011;38793;52.690;6.812;2022-12-18T04:57:54;50.77;;;25.37;;
52918;SDS011;38793;52.690;6.812;2022-12-18T05:00:20;52.80;;;25.47;;
52918;SDS011;38793;52.690;6.812;2022-12-18T05:05:12;53.20;;;23.30;;
52918;SDS011;38793;52.690;6.812;2022-12-18T05:07:38;58.42;;;27.42;;
52918;SDS011;38793;52.690;6.812;2022-12-18T05:10:04;55.97;;;23.57;;
52918;SDS011;38793;52.690;6.812;2022-12-18T05:12:30;50.83;;;24.00;;
52918;SDS011;38793;52.690;6.812;2022-12-18T05:14:56;51.10;;;22.35;;
52918;SDS011;38793;52.690;6.812;2022-12-18T05:17:21;53.70;;;27.10;;
52918;SDS011;38793;52.690;6.812;2022-12-18T05:19:47;50.27;;;24.53;;
52918;SDS011;38793;52.690;6.812;2022-12-18T05:22:12;54.47;;;25.27;;
52918;SDS011;38793;52.690;6.812;2022-12-18T05:24:38;58.87;;;25.67;;
52918;SDS011;38793;52.690;6.812;2022-12-18T05:27:03;50.37;;;26.33;;
52918;SDS011;38793;52.690;6.812;2022-12-18T05:29:29;60.93;;;25.43;;
52918;SDS011;38793;52.690;6.812;2022-12-18T05:31:55;51.63;;;24.33;;
52918;SDS011;38793;52.690;6.812;2022-12-18T05:34:20;52.23;;;24.63;;
52918;SDS011;38793;52.690;6.812;2022-12-18T05:36:46;53.77;;;25.03;;
52918;SDS011;38793;52.690;6.812;2022-12-18T05:39:11;46.13;;;23.97;;
52918;SDS011;38793;52.690;6.812;2022-12-18T05:41:37;57.38;;;25.17;;
52918;SDS011;38793;52.690;6.812;2022-12-18T05:44:03;52.37;;;23.60;;
52918;SDS011;38793;52.690;6.812;2022-12-18T05:46:28;56.27;;;25.77;;
52918;SDS011;38793;52.690;6.812;2022-12-18T05:48:54;58.33;;;27.58;;
52918;SDS011;38793;52.690;6.812;2022-12-18T05:51:20;56.17;;;27.47;;
52918;SDS011;38793;52.690;6.812;2022-12-18T05:53:47;51.55;;;23.58;;
52918;SDS011;38793;52.690;6.812;2022-12-18T05:56:17;53.67;;;26.00;;
52918;SDS011;38793;52.690;6.812;2022-12-18T05:58:45;54.47;;;24.80;;
52918;SDS011;38793;52.690;6.812;2022-12-18T06:01:13;51.17;;;24.98;;
52918;SDS011;38793;52.690;6.812;2022-12-18T06:03:40;50.33;;;24.98;;
52918;SDS011;38793;52.690;6.812;2022-12-18T06:06:15;48.87;;;23.80;;
52918;SDS011;38793;52.690;6.812;2022-12-18T06:08:43;42.03;;;22.88;;
52918;SDS011;38793;52.690;6.812;2022-12-18T06:11:09;50.63;;;24.92;;
52918;SDS011;38793;52.690;6.812;2022-12-18T06:13:34;54.28;;;25.45;;
52918;SDS011;38793;52.690;6.812;2022-12-18T06:16:06;55.17;;;27.17;;
52918;SDS011;38793;52.690;6.812;2022-12-18T06:18:33;47.80;;;22.58;;
52918;SDS011;38793;52.690;6.812;2022-12-18T06:20:59;51.40;;;24.98;;
52918;SDS011;38793;52.690;6.812;2022-12-18T06:23:25;54.45;;;26.92;;
52918;SDS011;38793;52.690;6.812;2022-12-18T06:25:51;51.35;;;25.08;;
52918;SDS011;38793;52.690;6.812;2022-12-18T06:28:17;56.80;;;27.13;;
52918;SDS011;38793;52.690;6.812;2022-12-18T06:30:43;55.60;;;28.80;;
52918;SDS011;38793;52.690;6.812;2022-12-18T06:33:09;54.45;;;27.38;;
52918;SDS011;38793;52.690;6.812;2022-12-18T06:35:35;54.37;;;26.57;;
52918;SDS011;38793;52.690;6.812;2022-12-18T06:38:01;47.57;;;24.73;;
52918;SDS011;38793;52.690;6.812;2022-12-18T06:40:27;51.75;;;26.55;;
52918;SDS011;38793;52.690;6.812;2022-12-18T06:42:53;48.55;;;23.80;;
52918;SDS011;38793;52.690;6.812;2022-12-18T06:45:19;51.40;;;25.33;;
52918;SDS011;38793;52.690;6.812;2022-12-18T06:47:44;53.80;;;27.15;;
52918;SDS011;38793;52.690;6.812;2022-12-18T06:50:10;51.83;;;25.47;;
52918;SDS011;38793;52.690;6.812;2022-12-18T06:55:04;52.88;;;25.25;;
52918;SDS011;38793;52.690;6.812;2022-12-18T06:57:30;49.80;;;25.42;;
52918;SDS011;38793;52.690;6.812;2022-12-18T06:59:55;51.80;;;23.63;;
52918;SDS011;38793;52.690;6.812;2022-12-18T07:02:21;47.23;;;25.33;;
52918;SDS011;38793;52.690;6.812;2022-12-18T07:04:46;47.63;;;25.63;;
52918;SDS011;38793;52.690;6.812;2022-12-18T07:07:12;52.20;;;27.60;;
52918;SDS011;38793;52.690;6.812;2022-12-18T07:09:37;46.20;;;24.70;;
52918;SDS011;38793;52.690;6.812;2022-12-18T07:12:03;45.50;;;23.10;;
52918;SDS011;38793;52.690;6.812;2022-12-18T07:14:29;46.35;;;24.05;;
52918;SDS011;38793;52.690;6.812;2022-12-18T07:16:55;41.63;;;23.30;;
52918;SDS011;38793;52.690;6.812;2022-12-18T07:19:20;41.47;;;21.90;;
52918;SDS011;38793;52.690;6.812;2022-12-18T07:21:46;47.63;;;23.93;;
52918;SDS011;38793;52.690;6.812;2022-12-18T07:24:12;49.50;;;24.73;;
52918;SDS011;38793;52.690;6.812;2022-12-18T07:26:37;46.92;;;24.40;;
52918;SDS011;38793;52.690;6.812;2022-12-18T07:29:03;41.27;;;22.97;;
52918;SDS011;38793;52.690;6.812;2022-12-18T07:31:28;42.63;;;24.87;;
52918;SDS011;38793;52.690;6.812;2022-12-18T07:33:54;42.03;;;22.77;;
52918;SDS011;38793;52.690;6.812;2022-12-18T07:36:20;38.33;;;23.67;;
52918;SDS011;38793;52.690;6.812;2022-12-18T07:38:49;43.17;;;23.00;;
52918;SDS011;38793;52.690;6.812;2022-12-18T07:41:17;42.10;;;24.20;;
52918;SDS011;38793;52.690;6.812;2022-12-18T07:43:44;42.28;;;25.67;;
52918;SDS011;38793;52.690;6.812;2022-12-18T07:46:09;38.78;;;22.88;;
52918;SDS011;38793;52.690;6.812;2022-12-18T07:51:02;40.55;;;22.65;;
52918;SDS011;38793;52.690;6.812;2022-12-18T07:53:29;42.00;;;21.90;;
52918;SDS011;38793;52.690;6.812;2022-12-18T07:56:02;39.30;;;22.05;;
52918;SDS011;38793;52.690;6.812;2022-12-18T07:58:30;46.45;;;23.77;;
52918;SDS011;38793;52.690;6.812;2022-12-18T08:01:02;42.00;;;22.73;;
52918;SDS011;38793;52.690;6.812;2022-12-18T08:03:29;44.25;;;21.52;;
52918;SDS011;38793;52.690;6.812;2022-12-18T08:05:58;45.97;;;22.73;;
52918;SDS011;38793;52.690;6.812;2022-12-18T08:08:27;33.72;;;20.75;;
52918;SDS011;38793;52.690;6.812;2022-12-18T08:10:53;40.33;;;21.25;;
52918;SDS011;38793;52.690;6.812;2022-12-18T08:13:19;36.10;;;20.08;;
52918;SDS011;38793;52.690;6.812;2022-12-18T08:15:44;31.73;;;19.20;;
52918;SDS011;38793;52.690;6.812;2022-12-18T08:18:10;37.27;;;19.90;;
52918;SDS011;38793;52.690;6.812;2022-12-18T08:20:35;34.30;;;20.30;;
52918;SDS011;38793;52.690;6.812;2022-12-18T08:23:01;36.53;;;21.00;;
52918;SDS011;38793;52.690;6.812;2022-12-18T08:25:27;33.90;;;19.67;;
52918;SDS011;38793;52.690;6.812;2022-12-18T08:27:52;38.13;;;21.40;;
52918;SDS011;38793;52.690;6.812;2022-12-18T08:30:18;32.97;;;21.02;;
52918;SDS011;38793;52.690;6.812;2022-12-18T08:32:44;36.20;;;21.33;;
52918;SDS011;38793;52.690;6.812;2022-12-18T08:35:09;33.07;;;19.90;;
52918;SDS011;38793;52.690;6.812;2022-12-18T08:37:36;29.42;;;18.90;;
52918;SDS011;38793;52.690;6.812;2022-12-18T08:40:02;32.30;;;19.97;;
52918;SDS011;38793;52.690;6.812;2022-12-18T08:42:28;31.77;;;19.33;;
52918;SDS011;38793;52.690;6.812;2022-12-18T08:45:12;29.17;;;17.30;;
52918;SDS011;38793;52.690;6.812;2022-12-18T08:47:38;31.60;;;18.13;;
52918;SDS011;38793;52.690;6.812;2022-12-18T08:50:04;35.93;;;19.43;;
52918;SDS011;38793;52.690;6.812;2022-12-18T08:52:31;32.92;;;19.85;;
52918;SDS011;38793;52.690;6.812;2022-12-18T08:54:57;29.08;;;18.02;;
52918;SDS011;38793;52.690;6.812;2022-12-18T08:57:22;26.50;;;16.27;;
52918;SDS011;38793;52.690;6.812;2022-12-18T08:59:48;32.47;;;17.17;;
52918;SDS011;38793;52.690;6.812;2022-12-18T09:02:13;26.70;;;16.57;;
52918;SDS011;38793;52.690;6.812;2022-12-18T09:04:39;24.27;;;14.93;;
52918;SDS011;38793;52.690;6.812;2022-12-18T09:07:05;24.23;;;15.07;;
52918;SDS011;38793;52.690;6.812;2022-12-18T09:09:30;27.67;;;16.80;;
52918;SDS011;38793;52.690;6.812;2022-12-18T09:11:56;19.93;;;14.03;;
52918;SDS011;38793;52.690;6.812;2022-12-18T09:14:21;22.83;;;14.03;;
52918;SDS011;38793;52.690;6.812;2022-12-18T09:16:47;27.50;;;12.87;;
52918;SDS011;38793;52.690;6.812;2022-12-18T09:19:12;25.07;;;13.43;;
52918;SDS011;38793;52.690;6.812;2022-12-18T09:21:38;16.25;;;12.45;;
52918;SDS011;38793;52.690;6.812;2022-12-18T09:24:04;24.35;;;13.15;;
52918;SDS011;38793;52.690;6.812;2022-12-18T09:26:30;20.17;;;12.63;;
52918;SDS011;38793;52.690;6.812;2022-12-18T09:28:56;17.45;;;12.63;;
52918;SDS011;38793;52.690;6.812;2022-12-18T09:31:22;18.67;;;12.43;;
52918;SDS011;38793;52.690;6.812;2022-12-18T09:33:49;18.75;;;11.50;;
52918;SDS011;38793;52.690;6.812;2022-12-18T09:36:16;21.23;;;10.98;;
52918;SDS011;38793;52.690;6.812;2022-12-18T09:38:42;18.42;;;10.88;;
52918;SDS011;38793;52.690;6.812;2022-12-18T09:43:57;16.80;;;10.50;;
52918;SDS011;38793;52.690;6.812;2022-12-18T09:46:33;12.35;;;9.27;;
52918;SDS011;38793;52.690;6.812;2022-12-18T09:49:02;11.25;;;7.97;;
52918;SDS011;38793;52.690;6.812;2022-12-18T09:54:16;16.35;;;9.25;;
52918;SDS011;38793;52.690;6.812;2022-12-18T09:56:46;17.10;;;10.55;;
52918;SDS011;38793;52.690;6.812;2022-12-18T09:59:46;16.85;;;9.65;;
52918;SDS011;38793;52.690;6.812;2022-12-18T10:02:17;17.75;;;10.70;;
52918;SDS011;38793;52.690;6.812;2022-12-18T10:04:47;10.80;;;8.35;;
52918;SDS011;38793;52.690;6.812;2022-12-18T10:07:22;14.73;;;8.63;;
52918;SDS011;38793;52.690;6.812;2022-12-18T10:10:00;11.70;;;8.80;;
52918;SDS011;38793;52.690;6.812;2022-12-18T10:13:21;14.05;;;8.77;;
52918;SDS011;38793;52.690;6.812;2022-12-18T10:16:05;13.00;;;8.98;;
52918;SDS011;38793;52.690;6.812;2022-12-18T10:24:48;9.48;;;7.05;;
52918;SDS011;38793;52.690;6.812;2022-12-18T10:27:18;8.82;;;7.25;;
52918;SDS011;38793;52.690;6.812;2022-12-18T10:29:48;10.43;;;7.85;;
52918;SDS011;38793;52.690;6.812;2022-12-18T10:32:15;10.83;;;7.43;;
52918;SDS011;38793;52.690;6.812;2022-12-18T10:34:50;13.82;;;7.43;;
52918;SDS011;38793;52.690;6.812;2022-12-18T10:37:19;11.55;;;6.95;;
52918;SDS011;38793;52.690;6.812;2022-12-18T10:39:47;10.82;;;7.82;;
52918;SDS011;38793;52.690;6.812;2022-12-18T10:42:30;9.00;;;6.97;;
52918;SDS011;38793;52.690;6.812;2022-12-18T10:45:09;13.83;;;7.47;;
52918;SDS011;38793;52.690;6.812;2022-12-18T10:47:41;11.35;;;7.32;;
52918;SDS011;38793;52.690;6.812;2022-12-18T10:50:18;10.95;;;7.25;;
52918;SDS011;38793;52.690;6.812;2022-12-18T10:52:52;10.38;;;7.32;;
52918;SDS011;38793;52.690;6.812;2022-12-18T10:55:23;13.77;;;7.60;;
52918;SDS011;38793;52.690;6.812;2022-12-18T10:58:16;8.93;;;5.40;;
52918;SDS011;38793;52.690;6.812;2022-12-18T11:03:35;9.48;;;6.25;;
52918;SDS011;38793;52.690;6.812;2022-12-18T11:06:02;11.07;;;7.35;;
52918;SDS011;38793;52.690;6.812;2022-12-18T11:08:38;12.07;;;6.07;;
52918;SDS011;38793;52.690;6.812;2022-12-18T11:11:07;6.78;;;5.60;;
52918;SDS011;38793;52.690;6.812;2022-12-18T11:16:37;9.95;;;6.15;;
52918;SDS011;38793;52.690;6.812;2022-12-18T11:19:12;8.05;;;5.90;;
52918;SDS011;38793;52.690;6.812;2022-12-18T11:21:47;9.40;;;6.80;;
52918;SDS011;38793;52.690;6.812;2022-12-18T11:24:19;8.90;;;6.93;;
52918;SDS011;38793;52.690;6.812;2022-12-18T11:26:48;9.50;;;6.45;;
52918;SDS011;38793;52.690;6.812;2022-12-18T11:29:16;9.18;;;6.95;;
52918;SDS011;38793;52.690;6.812;2022-12-18T11:31:43;10.15;;;7.38;;
52918;SDS011;38793;52.690;6.812;2022-12-18T11:34:10;9.57;;;6.37;;
52918;SDS011;38793;52.690;6.812;2022-12-18T11:36:53;12.35;;;6.95;;
52918;SDS011;38793;52.690;6.812;2022-12-18T11:44:42;11.32;;;7.78;;
52918;SDS011;38793;52.690;6.812;2022-12-18T11:47:26;11.82;;;8.25;;
52918;SDS011;38793;52.690;6.812;2022-12-18T11:49:55;11.70;;;7.72;;
52918;SDS011;38793;52.690;6.812;2022-12-18T11:52:26;12.77;;;7.43;;
52918;SDS011;38793;52.690;6.812;2022-12-18T11:55:14;13.27;;;7.68;;
52918;SDS011;38793;52.690;6.812;2022-12-18T12:00:41;12.27;;;8.90;;
52918;SDS011;38793;52.690;6.812;2022-12-18T12:16:56;10.57;;;7.67;;
52918;SDS011;38793;52.690;6.812;2022-12-18T12:19:45;8.32;;;6.45;;
52918;SDS011;38793;52.690;6.812;2022-12-18T12:24:59;9.60;;;6.95;;
52918;SDS011;38793;52.690;6.812;2022-12-18T12:35:52;11.00;;;7.70;;
52918;SDS011;38793;52.690;6.812;2022-12-18T12:38:37;10.98;;;7.05;;
52918;SDS011;38793;52.690;6.812;2022-12-18T12:41:12;12.63;;;9.02;;
52918;SDS011;38793;52.690;6.812;2022-12-18T12:44:01;9.55;;;7.65;;
52918;SDS011;38793;52.690;6.812;2022-12-18T12:46:29;10.80;;;7.25;;
52918;SDS011;38793;52.690;6.812;2022-12-18T12:48:58;10.75;;;7.72;;
52918;SDS011;38793;52.690;6.812;2022-12-18T12:51:29;10.95;;;8.43;;
52918;SDS011;38793;52.690;6.812;2022-12-18T12:54:00;10.57;;;7.55;;
52918;SDS011;38793;52.690;6.812;2022-12-18T12:56:37;13.38;;;8.75;;
52918;SDS011;38793;52.690;6.812;2022-12-18T12:59:13;11.48;;;8.27;;
52918;SDS011;38793;52.690;6.812;2022-12-18T13:04:45;11.63;;;7.10;;
52918;SDS011;38793;52.690;6.812;2022-12-18T13:08:23;10.27;;;7.68;;
52918;SDS011;38793;52.690;6.812;2022-12-18T13:10:49;16.40;;;8.10;;
52918;SDS011;38793;52.690;6.812;2022-12-18T13:13:48;11.07;;;7.20;;
52918;SDS011;38793;52.690;6.812;2022-12-18T13:16:17;11.35;;;7.88;;
52918;SDS011;38793;52.690;6.812;2022-12-18T13:18:51;11.10;;;7.53;;
52918;SDS011;38793;52.690;6.812;2022-12-18T13:21:25;10.88;;;7.60;;
52918;SDS011;38793;52.690;6.812;2022-12-18T13:23:54;10.90;;;7.88;;
52918;SDS011;38793;52.690;6.812;2022-12-18T13:28:55;13.30;;;8.57;;
52918;SDS011;38793;52.690;6.812;2022-12-18T13:31:57;13.25;;;7.82;;
52918;SDS011;38793;52.690;6.812;2022-12-18T13:34:25;12.90;;;7.70;;
52918;SDS011;38793;52.690;6.812;2022-12-18T13:36:52;12.73;;;7.88;;
52918;SDS011;38793;52.690;6.812;2022-12-18T13:42:36;12.27;;;8.48;;
52918;SDS011;38793;52.690;6.812;2022-12-18T13:47:03;16.00;;;9.35;;
52918;SDS011;38793;52.690;6.812;2022-12-18T13:52:22;14.50;;;9.25;;
52918;SDS011;38793;52.690;6.812;2022-12-18T13:54:53;14.10;;;10.25;;
52918;SDS011;38793;52.690;6.812;2022-12-18T13:57:28;21.15;;;10.38;;
52918;SDS011;38793;52.690;6.812;2022-12-18T13:59:57;13.77;;;9.38;;
52918;SDS011;38793;52.690;6.812;2022-12-18T14:02:36;13.02;;;8.75;;
52918;SDS011;38793;52.690;6.812;2022-12-18T14:05:03;15.60;;;10.50;;
52918;SDS011;38793;52.690;6.812;2022-12-18T14:07:29;18.38;;;9.77;;
52918;SDS011;38793;52.690;6.812;2022-12-18T14:09:57;17.85;;;10.43;;
52918;SDS011;38793;52.690;6.812;2022-12-18T14:12:26;14.02;;;10.35;;
52918;SDS011;38793;52.690;6.812;2022-12-18T14:17:54;15.50;;;9.40;;
52918;SDS011;38793;52.690;6.812;2022-12-18T14:20:27;14.90;;;10.02;;
52918;SDS011;38793;52.690;6.812;2022-12-18T14:22:54;16.80;;;10.40;;
52918;SDS011;38793;52.690;6.812;2022-12-18T14:30:29;18.58;;;11.85;;
52918;SDS011;38793;52.690;6.812;2022-12-18T14:35:30;20.67;;;11.43;;
52918;SDS011;38793;52.690;6.812;2022-12-18T14:40:47;17.27;;;11.43;;
52918;SDS011;38793;52.690;6.812;2022-12-18T14:43:16;16.92;;;12.98;;
52918;SDS011;38793;52.690;6.812;2022-12-18T14:45:42;21.53;;;12.77;;
52918;SDS011;38793;52.690;6.812;2022-12-18T14:50:42;18.60;;;13.40;;
52918;SDS011;38793;52.690;6.812;2022-12-18T14:53:21;20.42;;;13.13;;
52918;SDS011;38793;52.690;6.812;2022-12-18T14:58:45;18.02;;;12.02;;
52918;SDS011;38793;52.690;6.812;2022-12-18T15:01:19;21.95;;;12.77;;
52918;SDS011;38793;52.690;6.812;2022-12-18T15:03:47;20.25;;;13.07;;
52918;SDS011;38793;52.690;6.812;2022-12-18T15:09:22;23.38;;;13.90;;
52918;SDS011;38793;52.690;6.812;2022-12-18T15:11:49;20.67;;;13.15;;
52918;SDS011;38793;52.690;6.812;2022-12-18T15:15:02;21.80;;;14.02;;
52918;SDS011;38793;52.690;6.812;2022-12-18T15:17:16;21.25;;;14.68;;
52918;SDS011;38793;52.690;6.812;2022-12-18T15:19:47;21.60;;;14.85;;
52918;SDS011;38793;52.690;6.812;2022-12-18T15:22:18;22.30;;;14.98;;
52918;SDS011;38793;52.690;6.812;2022-12-18T15:24:53;21.63;;;14.88;;
52918;SDS011;38793;52.690;6.812;2022-12-18T15:27:24;18.60;;;13.65;;
52918;SDS011;38793;52.690;6.812;2022-12-18T15:32:48;24.40;;;17.05;;
52918;SDS011;38793;52.690;6.812;2022-12-18T15:37:42;23.02;;;15.85;;
52918;SDS011;38793;52.690;6.812;2022-12-18T15:40:12;21.90;;;15.40;;
52918;SDS011;38793;52.690;6.812;2022-12-18T15:42:42;23.98;;;15.10;;
52918;SDS011;38793;52.690;6.812;2022-12-18T15:45:27;25.40;;;15.23;;
52918;SDS011;38793;52.690;6.812;2022-12-18T15:47:53;23.98;;;16.00;;
52918;SDS011;38793;52.690;6.812;2022-12-18T15:50:19;21.93;;;15.30;;
52918;SDS011;38793;52.690;6.812;2022-12-18T15:52:45;24.33;;;14.70;;
52918;SDS011;38793;52.690;6.812;2022-12-18T15:55:16;21.10;;;15.13;;
52918;SDS011;38793;52.690;6.812;2022-12-18T15:58:03;24.55;;;14.65;;
52918;SDS011;38793;52.690;6.812;2022-12-18T16:00:30;27.38;;;16.20;;
52918;SDS011;38793;52.690;6.812;2022-12-18T16:02:56;23.30;;;15.27;;
52918;SDS011;38793;52.690;6.812;2022-12-18T16:05:21;24.67;;;16.30;;
52918;SDS011;38793;52.690;6.812;2022-12-18T16:07:48;20.25;;;15.00;;
52918;SDS011;38793;52.690;6.812;2022-12-18T16:10:13;22.93;;;15.33;;
52918;SDS011;38793;52.690;6.812;2022-12-18T16:12:39;20.02;;;14.85;;
52918;SDS011;38793;52.690;6.812;2022-12-18T16:15:06;26.75;;;15.57;;
52918;SDS011;38793;52.690;6.812;2022-12-18T16:17:32;22.05;;;14.75;;
52918;SDS011;38793;52.690;6.812;2022-12-18T16:19:58;26.43;;;15.00;;
52918;SDS011;38793;52.690;6.812;2022-12-18T16:22:27;21.70;;;15.07;;
52918;SDS011;38793;52.690;6.812;2022-12-18T16:24:55;25.05;;;16.77;;
52918;SDS011;38793;52.690;6.812;2022-12-18T16:27:22;24.08;;;15.38;;
52918;SDS011;38793;52.690;6.812;2022-12-18T16:29:48;21.05;;;13.85;;
52918;SDS011;38793;52.690;6.812;2022-12-18T16:32:15;23.52;;;16.05;;
52918;SDS011;38793;52.690;6.812;2022-12-18T16:34:43;21.85;;;14.38;;